createdAt,value
2022-08-19T00:01:37.818Z,20.50
2022-08-19T00:04:08.453Z,20.50
2022-08-19T00:06:37.799Z,20.50
2022-08-19T00:09:07.062Z,20.40
2022-08-19T00:11:35.596Z,20.40
2022-08-19T00:14:02.347Z,20.40
2022-08-19T00:16:29.044Z,20.40
2022-08-19T00:18:56.464Z,20.40
2022-08-19T00:21:25.452Z,20.40
2022-08-19T00:23:52.221Z,20.40
2022-08-19T00:26:18.945Z,20.40
2022-08-19T00:28:46.087Z,20.40
2022-08-19T00:31:12.987Z,20.40
2022-08-19T00:33:39.801Z,20.40
2022-08-19T00:36:08.775Z,20.40
2022-08-19T00:38:38.073Z,20.30
2022-08-19T00:41:08.233Z,20.30
2022-08-19T00:43:35.165Z,20.20
2022-08-19T00:46:05.662Z,20.20
2022-08-19T00:48:34.548Z,20.20
2022-08-19T00:51:02.229Z,20.10
2022-08-19T00:53:32.838Z,20.10
2022-08-19T00:56:01.651Z,20.00
2022-08-19T00:58:33.527Z,20.00
2022-08-19T01:01:01.656Z,20.00
2022-08-19T01:03:28.621Z,20.00
2022-08-19T01:05:56.443Z,20.00
2022-08-19T01:08:24.219Z,20.00
2022-08-19T01:10:58.874Z,19.90
2022-08-19T01:13:29.008Z,19.90
2022-08-19T01:16:13.058Z,19.80
2022-08-19T01:18:43.059Z,19.80
2022-08-19T01:21:21.721Z,19.80
2022-08-19T01:23:48.795Z,19.80
2022-08-19T01:26:22.466Z,19.80
2022-08-19T01:28:53.071Z,19.80
2022-08-19T01:31:27.342Z,19.80
2022-08-19T01:33:57.619Z,19.80
2022-08-19T01:36:42.883Z,19.80
2022-08-19T01:39:14.131Z,19.80
2022-08-19T01:41:41.210Z,19.70
2022-08-19T01:44:18.871Z,19.70
2022-08-19T01:46:48.438Z,19.70
2022-08-19T01:49:17.367Z,19.60
2022-08-19T01:51:44.260Z,19.60
2022-08-19T01:54:14.314Z,19.60
2022-08-19T01:56:55.155Z,19.60
2022-08-19T01:59:23.882Z,19.50
2022-08-19T02:01:50.728Z,19.50
2022-08-19T02:04:17.593Z,19.50
2022-08-19T02:06:44.353Z,19.50
2022-08-19T02:09:11.203Z,19.50
2022-08-19T02:11:39.101Z,19.50
2022-08-19T02:14:08.633Z,19.50
2022-08-19T02:16:37.384Z,19.50
2022-08-19T02:19:05.361Z,19.50
2022-08-19T02:21:32.061Z,19.50
2022-08-19T02:23:59.098Z,19.40
2022-08-19T02:26:27.548Z,19.30
2022-08-19T02:28:55.617Z,19.30
2022-08-19T02:31:25.733Z,19.40
2022-08-19T02:33:56.575Z,19.30
2022-08-19T02:36:25.805Z,19.30
2022-08-19T02:38:54.690Z,19.30
2022-08-19T02:41:33.449Z,19.30
2022-08-19T02:44:26.557Z,19.30
2022-08-19T02:46:52.611Z,19.30
2022-08-19T02:49:20.645Z,19.30
2022-08-19T02:51:47.950Z,19.30
2022-08-19T02:54:15.541Z,19.30
2022-08-19T02:56:43.858Z,19.20
2022-08-19T02:59:12.953Z,19.30
2022-08-19T03:01:42.036Z,19.20
2022-08-19T03:04:11.402Z,19.30
2022-08-19T03:06:40.145Z,19.20
2022-08-19T03:09:07.579Z,19.20
2022-08-19T03:11:34.668Z,19.20
2022-08-19T03:14:02.800Z,19.10
2022-08-19T03:16:33.711Z,19.20
2022-08-19T03:19:02.622Z,19.20
2022-08-19T03:21:32.042Z,19.20
2022-08-19T03:24:01.884Z,19.10
2022-08-19T03:26:30.203Z,19.20
2022-08-19T03:28:59.050Z,19.10
2022-08-19T03:31:45.481Z,19.10
2022-08-19T03:34:28.522Z,19.10
2022-08-19T03:36:58.071Z,19.10
2022-08-19T03:39:26.380Z,19.10
2022-08-19T03:42:29.285Z,19.10
2022-08-19T03:44:46.098Z,19.10
2022-08-19T03:47:17.485Z,19.10
2022-08-19T03:49:45.129Z,19.00
2022-08-19T03:52:13.286Z,19.00
2022-08-19T03:54:40.559Z,19.00
2022-08-19T03:57:08.317Z,19.00
2022-08-19T03:59:37.908Z,19.00
2022-08-19T04:02:10.309Z,19.00
2022-08-19T04:04:40.519Z,19.00
2022-08-19T04:07:07.849Z,19.00
2022-08-19T04:09:37.672Z,19.00
2022-08-19T04:12:06.550Z,19.00
2022-08-19T04:14:35.098Z,19.00
2022-08-19T04:17:05.831Z,19.00
2022-08-19T04:19:36.997Z,18.90
2022-08-19T04:22:05.121Z,19.00
2022-08-19T04:24:32.340Z,18.90
2022-08-19T04:27:03.763Z,18.90
2022-08-19T04:29:31.376Z,18.90
2022-08-19T04:32:09.061Z,18.90
2022-08-19T04:35:01.986Z,18.90
2022-08-19T04:37:25.755Z,18.90
2022-08-19T04:40:11.203Z,18.80
2022-08-19T04:42:40.934Z,18.80
2022-08-19T04:45:12.512Z,18.80
2022-08-19T04:47:47.757Z,18.80
2022-08-19T04:50:26.768Z,18.80
2022-08-19T04:52:54.322Z,18.80
2022-08-19T04:55:22.709Z,18.80
2022-08-19T04:57:59.137Z,18.70
2022-08-19T05:00:27.019Z,18.70
2022-08-19T05:02:54.067Z,18.70
2022-08-19T05:05:21.791Z,18.70
2022-08-19T05:07:48.652Z,18.80
2022-08-19T05:10:15.413Z,18.70
2022-08-19T05:12:42.172Z,18.70
2022-08-19T05:15:09.658Z,18.70
2022-08-19T05:17:39.051Z,18.70
2022-08-19T05:20:26.444Z,18.70
2022-08-19T05:22:53.372Z,18.70
2022-08-19T05:25:21.742Z,18.70
2022-08-19T05:27:48.811Z,18.70
2022-08-19T05:30:15.599Z,18.80
2022-08-19T05:32:43.646Z,18.80
2022-08-19T05:35:10.843Z,18.80
2022-08-19T05:37:39.490Z,18.80
2022-08-19T05:40:07.006Z,18.80
2022-08-19T05:42:33.827Z,18.80
2022-08-19T05:45:00.522Z,18.90
2022-08-19T05:47:27.330Z,18.80
2022-08-19T05:49:54.095Z,18.80
2022-08-19T05:52:26.087Z,18.80
2022-08-19T05:54:56.043Z,18.80
2022-08-19T05:57:24.176Z,18.90
2022-08-19T05:59:52.692Z,18.80
2022-08-19T06:02:19.884Z,18.80
2022-08-19T06:04:46.707Z,18.80
2022-08-19T06:07:13.512Z,18.80
2022-08-19T06:09:43.662Z,18.80
2022-08-19T06:12:17.561Z,18.80
2022-08-19T06:14:45.866Z,18.80
2022-08-19T06:17:14.024Z,18.80
2022-08-19T06:19:41.972Z,18.80
2022-08-19T06:22:08.972Z,18.90
2022-08-19T06:24:36.342Z,18.90
2022-08-19T06:27:04.221Z,18.90
2022-08-19T06:29:31.184Z,18.90
2022-08-19T06:32:00.326Z,18.90
2022-08-19T06:34:29.427Z,18.90
2022-08-19T06:36:57.707Z,18.90
2022-08-19T06:39:26.975Z,18.90
2022-08-19T06:41:58.626Z,18.80
2022-08-19T06:44:27.774Z,18.80
2022-08-19T06:46:57.783Z,18.80
2022-08-19T06:49:26.022Z,18.90
2022-08-19T06:51:52.881Z,18.90
2022-08-19T06:54:20.819Z,18.90
2022-08-19T06:56:47.893Z,18.80
2022-08-19T06:59:18.692Z,18.90
2022-08-19T07:01:52.016Z,18.90
2022-08-19T07:04:25.830Z,18.90
2022-08-19T07:07:20.270Z,18.90
2022-08-19T07:09:57.102Z,19.00
2022-08-19T07:12:30.935Z,19.00
2022-08-19T07:14:58.845Z,19.00
2022-08-19T07:17:26.464Z,19.00
2022-08-19T07:19:54.172Z,19.00
2022-08-19T07:22:24.267Z,19.00
2022-08-19T07:24:52.231Z,19.00
2022-08-19T07:27:25.130Z,18.90
2022-08-19T07:29:57.414Z,18.90
2022-08-19T07:32:27.455Z,18.90
2022-08-19T07:34:54.650Z,18.90
2022-08-19T07:37:21.473Z,18.90
2022-08-19T07:39:48.799Z,18.90
2022-08-19T07:42:15.701Z,18.90
2022-08-19T07:44:49.972Z,18.90
2022-08-19T07:47:50.120Z,18.90
2022-08-19T07:50:08.490Z,18.90
2022-08-19T07:52:36.864Z,18.90
2022-08-19T07:55:05.071Z,18.90
2022-08-19T07:57:32.055Z,18.90
2022-08-19T07:59:59.242Z,18.90
2022-08-19T08:02:25.957Z,18.90
2022-08-19T08:05:11.169Z,18.90
2022-08-19T08:07:56.713Z,18.90
2022-08-19T08:10:24.162Z,18.90
2022-08-19T08:13:08.696Z,19.00
2022-08-19T08:15:42.138Z,19.00
2022-08-19T08:18:10.515Z,19.00
2022-08-19T08:20:37.384Z,19.00
2022-08-19T08:23:23.171Z,19.00
2022-08-19T08:25:50.409Z,18.90
2022-08-19T08:28:18.469Z,18.90
2022-08-19T08:30:48.276Z,18.80
2022-08-19T08:33:34.216Z,18.80
2022-08-19T08:36:12.151Z,18.70
2022-08-19T08:38:40.583Z,18.70
2022-08-19T08:41:29.386Z,18.70
2022-08-19T08:43:58.056Z,18.60
2022-08-19T08:46:42.209Z,18.60
2022-08-19T08:49:27.464Z,18.60
2022-08-19T08:52:22.370Z,18.60
2022-08-19T08:54:55.217Z,18.60
2022-08-19T08:57:37.733Z,18.60
2022-08-19T09:00:15.907Z,18.60
2022-08-19T09:02:43.862Z,18.60
2022-08-19T09:05:16.583Z,18.60
2022-08-19T09:08:09.705Z,18.60
2022-08-19T09:10:55.369Z,18.50
2022-08-19T09:13:28.424Z,18.60
2022-08-19T09:16:03.294Z,18.60
2022-08-19T09:18:49.787Z,18.60
2022-08-19T09:21:17.181Z,18.60
2022-08-19T09:23:44.720Z,18.60
2022-08-19T09:26:16.743Z,18.60
2022-08-19T09:28:48.832Z,18.70
2022-08-19T09:31:19.133Z,18.70
2022-08-19T09:33:46.498Z,18.70
2022-08-19T09:36:21.817Z,18.70
2022-08-19T09:39:01.518Z,18.70
2022-08-19T09:41:29.023Z,18.70
2022-08-19T09:43:58.456Z,18.70
2022-08-19T09:46:28.143Z,18.70
2022-08-19T09:48:55.739Z,18.80
2022-08-19T09:51:26.970Z,18.70
2022-08-19T09:53:55.230Z,18.70
2022-08-19T09:56:23.440Z,18.70
2022-08-19T09:58:51.373Z,18.70
2022-08-19T10:01:25.320Z,18.70
2022-08-19T10:03:54.634Z,18.70
2022-08-19T10:06:41.987Z,18.70
2022-08-19T10:09:12.081Z,18.70
2022-08-19T10:11:51.031Z,18.70
2022-08-19T10:14:23.241Z,18.70
2022-08-19T10:16:52.502Z,18.70
2022-08-19T10:19:25.403Z,18.70
2022-08-19T10:21:55.903Z,18.70
2022-08-19T10:24:28.704Z,18.70
2022-08-19T10:26:58.882Z,18.70
2022-08-19T10:29:33.117Z,18.80
2022-08-19T10:32:09.633Z,18.80
2022-08-19T10:34:48.440Z,18.80
2022-08-19T10:37:23.617Z,18.90
2022-08-19T10:39:51.817Z,18.90
2022-08-19T10:42:19.628Z,18.90
2022-08-19T10:44:47.713Z,19.00
2022-08-19T10:47:17.738Z,19.00
2022-08-19T10:50:11.741Z,19.00
2022-08-19T10:52:40.260Z,19.00
2022-08-19T10:55:40.671Z,19.10
2022-08-19T10:58:27.161Z,19.00
2022-08-19T11:00:57.176Z,19.10
2022-08-19T11:03:25.327Z,19.10
2022-08-19T11:06:07.015Z,19.10
2022-08-19T11:08:35.841Z,19.10
2022-08-19T11:11:04.185Z,19.10
2022-08-19T11:13:34.382Z,19.10
2022-08-19T11:16:07.940Z,19.10
2022-08-19T11:18:37.438Z,19.10
2022-08-19T11:21:18.201Z,19.10
2022-08-19T11:23:45.785Z,19.20
2022-08-19T11:26:12.719Z,19.20
2022-08-19T11:28:39.657Z,19.40
2022-08-19T11:31:18.347Z,19.40
2022-08-19T11:33:47.610Z,19.40
2022-08-19T11:36:15.366Z,19.40
2022-08-19T11:38:43.236Z,19.40
2022-08-19T11:41:09.974Z,19.40
2022-08-19T11:43:37.866Z,19.40
2022-08-19T11:46:11.507Z,19.50
2022-08-19T11:48:39.041Z,19.50
2022-08-19T11:51:11.584Z,19.50
2022-08-19T11:53:38.918Z,19.50
2022-08-19T11:56:07.694Z,19.50
2022-08-19T11:58:35.327Z,19.50
2022-08-19T12:01:02.557Z,19.50
2022-08-19T12:03:29.298Z,19.50
2022-08-19T12:05:56.183Z,19.50
2022-08-19T12:08:22.984Z,19.50
2022-08-19T12:10:49.846Z,19.50
2022-08-19T12:13:19.297Z,19.50
2022-08-19T12:15:47.824Z,19.50
2022-08-19T12:18:15.003Z,19.60
2022-08-19T12:20:43.875Z,19.50
2022-08-19T12:23:10.974Z,19.50
2022-08-19T12:25:44.631Z,19.50
2022-08-19T12:28:11.334Z,19.50
2022-08-19T12:30:39.035Z,19.50
2022-08-19T12:33:05.873Z,19.50
2022-08-19T12:35:32.826Z,19.50
2022-08-19T12:38:00.831Z,19.50
2022-08-19T12:40:27.865Z,19.60
2022-08-19T12:42:55.833Z,19.60
2022-08-19T12:45:23.377Z,19.60
2022-08-19T12:47:50.558Z,19.60
2022-08-19T12:50:22.339Z,19.60
2022-08-19T12:52:49.519Z,19.60
2022-08-19T12:55:16.292Z,19.60
2022-08-19T12:57:42.992Z,19.60
2022-08-19T13:00:16.108Z,19.60
2022-08-19T13:02:45.909Z,19.60
2022-08-19T13:05:21.041Z,19.60
2022-08-19T13:07:48.284Z,19.60
2022-08-19T13:10:18.168Z,19.60
2022-08-19T13:12:49.930Z,19.60
2022-08-19T13:15:23.736Z,19.50
2022-08-19T13:17:52.935Z,19.60
2022-08-19T13:20:21.583Z,19.50
2022-08-19T13:22:49.260Z,19.60
2022-08-19T13:25:18.705Z,19.50
2022-08-19T13:27:46.093Z,19.50
2022-08-19T13:30:37.861Z,19.50
2022-08-19T13:33:17.610Z,19.40
2022-08-19T13:35:51.902Z,19.50
2022-08-19T13:38:21.457Z,19.50
2022-08-19T13:40:51.301Z,19.50
2022-08-19T13:43:23.029Z,19.50
2022-08-19T13:45:57.259Z,19.50
2022-08-19T13:48:26.229Z,19.50
2022-08-19T13:50:52.951Z,19.40
2022-08-19T13:53:19.936Z,19.40
2022-08-19T13:55:47.475Z,19.30
2022-08-19T13:58:14.498Z,19.30
2022-08-19T14:00:45.809Z,19.30
2022-08-19T14:03:13.110Z,19.30
2022-08-19T14:05:40.212Z,19.30
2022-08-19T14:08:07.292Z,19.30
2022-08-19T14:10:34.425Z,19.30
2022-08-19T14:13:03.055Z,19.30
2022-08-19T14:15:31.013Z,19.20
2022-08-19T14:17:58.034Z,19.20
2022-08-19T14:20:26.183Z,19.20
2022-08-19T14:22:54.179Z,19.20
2022-08-19T14:25:26.554Z,19.30
2022-08-19T14:27:54.040Z,19.30
2022-08-19T14:30:25.865Z,19.30
2022-08-19T14:32:52.542Z,19.20
2022-08-19T14:35:19.390Z,19.30
2022-08-19T14:37:46.642Z,19.30
2022-08-19T14:40:18.840Z,19.30
2022-08-19T14:42:45.806Z,19.30
2022-08-19T14:45:13.224Z,19.30
2022-08-19T14:47:40.034Z,19.30
2022-08-19T14:50:10.642Z,19.30
2022-08-19T14:52:44.917Z,19.30
2022-08-19T14:55:11.732Z,19.30
2022-08-19T14:57:38.467Z,19.40
2022-08-19T15:00:06.055Z,19.40
2022-08-19T15:02:34.027Z,19.50
2022-08-19T15:05:03.028Z,19.40
2022-08-19T15:07:30.413Z,19.50
2022-08-19T15:09:58.412Z,19.50
2022-08-19T15:12:25.869Z,19.50
2022-08-19T15:14:55.136Z,19.60
2022-08-19T15:17:25.816Z,19.60
2022-08-19T15:20:11.615Z,19.60
2022-08-19T15:22:38.483Z,19.60
2022-08-19T15:25:08.158Z,19.60
2022-08-19T15:27:35.580Z,19.60
2022-08-19T15:30:02.706Z,19.60
2022-08-19T15:32:30.472Z,19.60
2022-08-19T15:34:57.394Z,19.60
2022-08-19T15:37:25.244Z,19.70
2022-08-19T15:39:52.216Z,19.70
2022-08-19T15:42:29.936Z,19.80
2022-08-19T15:45:00.592Z,19.80
2022-08-19T15:47:34.629Z,19.90
2022-08-19T15:50:15.171Z,19.90
2022-08-19T15:52:54.259Z,19.90
2022-08-19T15:55:32.689Z,20.00
2022-08-19T15:58:28.412Z,20.00
2022-08-19T16:01:20.865Z,20.00
2022-08-19T16:04:13.970Z,20.10
2022-08-19T16:06:48.723Z,20.20
2022-08-19T16:09:17.039Z,20.20
2022-08-19T16:11:46.461Z,20.20
2022-08-19T16:14:19.101Z,20.30
2022-08-19T16:16:47.873Z,20.30
2022-08-19T16:19:16.981Z,20.30
2022-08-19T16:21:54.871Z,20.30
2022-08-19T16:24:24.298Z,20.40
2022-08-19T16:26:51.639Z,20.40
2022-08-19T16:29:33.465Z,20.50
2022-08-19T16:32:02.679Z,20.50
2022-08-19T16:34:30.607Z,20.60
2022-08-19T16:36:57.466Z,20.60
2022-08-19T16:39:24.325Z,20.60
2022-08-19T16:41:51.573Z,20.60
2022-08-19T16:44:20.836Z,20.70
2022-08-19T16:46:48.676Z,20.70
2022-08-19T16:49:53.708Z,20.70
2022-08-19T16:52:17.867Z,20.70
2022-08-19T16:54:44.823Z,20.70
2022-08-19T16:57:12.567Z,20.70
2022-08-19T16:59:45.014Z,20.70
2022-08-19T17:02:20.519Z,20.70
2022-08-19T17:04:57.252Z,20.70
2022-08-19T17:07:29.354Z,20.60
2022-08-19T17:09:59.813Z,20.50
2022-08-19T17:12:31.606Z,20.40
2022-08-19T17:15:01.093Z,20.40
2022-08-19T17:17:29.566Z,20.30
2022-08-19T17:19:57.625Z,20.30
2022-08-19T17:22:24.403Z,20.30
2022-08-19T17:24:51.109Z,20.30
2022-08-19T17:27:19.790Z,20.30
2022-08-19T17:29:47.254Z,20.20
2022-08-19T17:32:15.332Z,20.20
2022-08-19T17:34:42.079Z,20.10
2022-08-19T17:37:08.827Z,20.10
2022-08-19T17:39:39.703Z,20.10
2022-08-19T17:42:08.134Z,20.00
2022-08-19T17:44:36.548Z,20.00
2022-08-19T17:47:04.332Z,20.00
2022-08-19T17:49:33.323Z,20.00
2022-08-19T17:52:00.540Z,19.90
2022-08-19T17:54:33.733Z,19.90
2022-08-19T17:57:01.381Z,19.90
2022-08-19T17:59:30.293Z,19.80
2022-08-19T18:01:57.750Z,19.80
2022-08-19T18:04:25.653Z,19.80
2022-08-19T18:06:54.938Z,19.80
2022-08-19T18:09:25.066Z,19.80
2022-08-19T18:11:53.726Z,19.80
2022-08-19T18:14:28.112Z,19.70
2022-08-19T18:17:00.139Z,19.70
2022-08-19T18:19:30.205Z,19.80
2022-08-19T18:22:08.628Z,19.80
2022-08-19T18:24:39.156Z,19.80
2022-08-19T18:27:07.021Z,19.80
2022-08-19T18:29:34.114Z,19.80
2022-08-19T18:32:01.921Z,19.70
2022-08-19T18:34:29.466Z,19.70
2022-08-19T18:36:56.173Z,19.70
2022-08-19T18:39:44.164Z,19.70
2022-08-19T18:42:35.282Z,19.70
2022-08-19T18:45:21.300Z,19.70
2022-08-19T18:48:06.901Z,19.70
2022-08-19T18:50:52.467Z,19.70
2022-08-19T18:53:19.149Z,19.70
2022-08-19T18:55:49.434Z,19.70
2022-08-19T18:58:16.456Z,19.70
2022-08-19T19:00:44.057Z,19.60
2022-08-19T19:03:11.655Z,19.60
2022-08-19T19:05:39.923Z,19.60
2022-08-19T19:08:07.829Z,19.60
2022-08-19T19:10:36.246Z,19.50
2022-08-19T19:13:03.352Z,19.50
2022-08-19T19:15:30.117Z,19.50
2022-08-19T19:17:57.070Z,19.50
2022-08-19T19:20:36.447Z,19.50
2022-08-19T19:23:04.324Z,19.50
2022-08-19T19:25:49.890Z,19.50
2022-08-19T19:28:29.029Z,19.40
2022-08-19T19:30:59.965Z,19.40
2022-08-19T19:33:27.959Z,19.40
2022-08-19T19:35:55.089Z,19.40
2022-08-19T19:38:21.797Z,19.30
2022-08-19T19:40:48.604Z,19.30
2022-08-19T19:43:17.079Z,19.30
2022-08-19T19:45:44.291Z,19.30
2022-08-19T19:48:13.442Z,19.20
2022-08-19T19:50:40.317Z,19.20
2022-08-19T19:53:07.158Z,19.20
2022-08-19T19:55:33.950Z,19.20
2022-08-19T19:58:00.639Z,19.20
2022-08-19T20:00:27.347Z,19.20
2022-08-19T20:02:56.033Z,19.10
2022-08-19T20:05:23.360Z,19.10
2022-08-19T20:08:11.061Z,19.20
2022-08-19T20:10:38.524Z,19.20
2022-08-19T20:13:07.619Z,19.20
2022-08-19T20:15:37.939Z,19.10
2022-08-19T20:18:07.410Z,19.10
2022-08-19T20:20:34.288Z,19.10
2022-08-19T20:23:01.228Z,19.10
2022-08-19T20:25:28.574Z,19.10
2022-08-19T20:27:55.371Z,19.10
2022-08-19T20:30:23.177Z,19.00
2022-08-19T20:32:50.556Z,19.00
2022-08-19T20:35:20.489Z,19.00
2022-08-19T20:37:47.633Z,19.00
2022-08-19T20:40:15.377Z,19.00
2022-08-19T20:42:43.942Z,18.90
2022-08-19T20:45:26.720Z,18.90
2022-08-19T20:48:02.708Z,18.90
2022-08-19T20:50:31.413Z,18.80
2022-08-19T20:52:58.663Z,18.90
2022-08-19T20:55:26.435Z,18.90
2022-08-19T20:57:53.491Z,18.90
2022-08-19T21:00:20.779Z,18.90
2022-08-19T21:02:47.531Z,18.90
2022-08-19T21:05:15.008Z,18.80
2022-08-19T21:07:41.798Z,18.90
2022-08-19T21:10:09.019Z,18.90
2022-08-19T21:12:35.801Z,18.80
2022-08-19T21:15:03.222Z,18.80
2022-08-19T21:17:29.902Z,18.80
2022-08-19T21:19:56.609Z,18.70
2022-08-19T21:22:23.481Z,18.70
2022-08-19T21:24:50.333Z,18.70
2022-08-19T21:27:17.442Z,18.70
2022-08-19T21:29:53.546Z,18.60
2022-08-19T21:32:20.630Z,18.60
2022-08-19T21:34:47.527Z,18.60
2022-08-19T21:37:24.718Z,18.60
2022-08-19T21:39:52.190Z,18.70
2022-08-19T21:42:19.028Z,18.80
2022-08-19T21:44:46.021Z,18.80
2022-08-19T21:47:13.149Z,18.90
2022-08-19T21:49:40.040Z,18.90
2022-08-19T21:52:08.133Z,18.90
2022-08-19T21:54:37.469Z,19.00
2022-08-19T21:57:10.568Z,19.00
2022-08-19T21:59:41.140Z,19.00
2022-08-19T22:02:19.968Z,19.00
2022-08-19T22:04:47.306Z,19.00
2022-08-19T22:07:14.741Z,19.00
2022-08-19T22:09:42.868Z,19.10
2022-08-19T22:12:20.930Z,19.10
2022-08-19T22:14:47.672Z,19.10
2022-08-19T22:17:15.248Z,19.20
2022-08-19T22:19:42.152Z,19.20
2022-08-19T22:22:09.160Z,19.20
2022-08-19T22:24:36.099Z,19.20
2022-08-19T22:27:05.869Z,19.20
2022-08-19T22:29:36.479Z,19.20
2022-08-19T22:32:23.009Z,19.20
2022-08-19T22:34:51.790Z,19.20
2022-08-19T22:37:18.779Z,19.20
2022-08-19T22:39:45.582Z,19.20
2022-08-19T22:42:12.744Z,19.30
2022-08-19T22:44:39.603Z,19.20
2022-08-19T22:47:06.455Z,19.30
2022-08-19T22:49:33.162Z,19.30
2022-08-19T22:52:17.366Z,19.30
2022-08-19T22:54:55.104Z,19.30
2022-08-19T22:57:22.804Z,19.30
2022-08-19T22:59:51.370Z,19.30
2022-08-19T23:02:21.560Z,19.30
2022-08-19T23:04:49.727Z,19.20
2022-08-19T23:07:18.405Z,19.20
2022-08-19T23:09:50.600Z,19.20
2022-08-19T23:12:30.579Z,19.20
2022-08-19T23:15:05.558Z,19.10
2022-08-19T23:17:32.345Z,19.10
2022-08-19T23:19:59.846Z,19.10
2022-08-19T23:22:27.310Z,19.10
2022-08-19T23:24:56.133Z,19.10
2022-08-19T23:27:41.592Z,19.00
2022-08-19T23:30:27.705Z,19.00
2022-08-19T23:32:59.400Z,19.00
2022-08-19T23:35:27.517Z,18.90
2022-08-19T23:37:54.486Z,19.00
2022-08-19T23:40:22.005Z,19.00
2022-08-19T23:42:50.206Z,18.90
2022-08-19T23:45:23.622Z,18.80
2022-08-19T23:47:52.091Z,18.80
2022-08-19T23:50:21.980Z,18.80
2022-08-19T23:52:59.972Z,18.80
2022-08-19T23:55:29.848Z,18.80
2022-08-19T23:57:57.580Z,18.70
